sensor_id;sensor_type;location;lat;lon;timestamp;P1;durP1;ratioP1;P2;durP2;ratioP2
7263;SDS011;3673;52.480;13.348;2022-10-29T00:00:42;15.02;;;8.30;;
7263;SDS011;3673;52.480;13.348;2022-10-29T00:03:09;10.13;;;5.38;;
7263;SDS011;3673;52.480;13.348;2022-10-29T00:05:36;15.57;;;5.22;;
7263;SDS011;3673;52.480;13.348;2022-10-29T00:08:03;15.15;;;7.85;;
7263;SDS011;3673;52.480;13.348;2022-10-29T00:10:30;18.70;;;7.07;;
7263;SDS011;3673;52.480;13.348;2022-10-29T00:12:58;11.30;;;5.75;;
7263;SDS011;3673;52.480;13.348;2022-10-29T00:15:27;14.88;;;9.30;;
7263;SDS011;3673;52.480;13.348;2022-10-29T00:17:54;12.32;;;5.95;;
7263;SDS011;3673;52.480;13.348;2022-10-29T00:20:21;12.85;;;5.82;;
7263;SDS011;3673;52.480;13.348;2022-10-29T00:22:48;15.02;;;5.95;;
7263;SDS011;3673;52.480;13.348;2022-10-29T00:25:18;11.20;;;6.05;;
7263;SDS011;3673;52.480;13.348;2022-10-29T00:27:45;13.52;;;4.47;;
7263;SDS011;3673;52.480;13.348;2022-10-29T00:30:12;16.33;;;5.72;;
7263;SDS011;3673;52.480;13.348;2022-10-29T00:32:41;10.77;;;5.00;;
7263;SDS011;3673;52.480;13.348;2022-10-29T00:35:07;5.70;;;4.40;;
7263;SDS011;3673;52.480;13.348;2022-10-29T00:37:34;12.50;;;5.38;;
7263;SDS011;3673;52.480;13.348;2022-10-29T00:40:01;12.30;;;4.95;;
7263;SDS011;3673;52.480;13.348;2022-10-29T00:42:29;11.38;;;4.88;;
7263;SDS011;3673;52.480;13.348;2022-10-29T00:44:56;10.13;;;4.78;;
7263;SDS011;3673;52.480;13.348;2022-10-29T00:47:24;16.35;;;5.65;;
7263;SDS011;3673;52.480;13.348;2022-10-29T00:49:55;14.88;;;5.72;;
7263;SDS011;3673;52.480;13.348;2022-10-29T00:52:26;14.40;;;5.57;;
7263;SDS011;3673;52.480;13.348;2022-10-29T00:54:57;11.40;;;5.03;;
7263;SDS011;3673;52.480;13.348;2022-10-29T00:57:28;13.32;;;5.03;;
7263;SDS011;3673;52.480;13.348;2022-10-29T00:59:59;20.30;;;4.85;;
7263;SDS011;3673;52.480;13.348;2022-10-29T01:02:27;12.50;;;5.05;;
7263;SDS011;3673;52.480;13.348;2022-10-29T01:04:58;14.77;;;5.07;;
7263;SDS011;3673;52.480;13.348;2022-10-29T01:07:26;15.70;;;4.78;;
7263;SDS011;3673;52.480;13.348;2022-10-29T01:09:53;15.18;;;5.43;;
7263;SDS011;3673;52.480;13.348;2022-10-29T01:12:32;11.27;;;5.45;;
7263;SDS011;3673;52.480;13.348;2022-10-29T01:15:33;13.38;;;5.07;;
7263;SDS011;3673;52.480;13.348;2022-10-29T01:18:12;20.48;;;5.55;;
7263;SDS011;3673;52.480;13.348;2022-10-29T01:20:55;22.13;;;5.90;;
7263;SDS011;3673;52.480;13.348;2022-10-29T01:33:27;16.88;;;5.07;;
7263;SDS011;3673;52.480;13.348;2022-10-29T01:36:03;15.13;;;5.13;;
7263;SDS011;3673;52.480;13.348;2022-10-29T01:38:41;15.20;;;5.65;;
7263;SDS011;3673;52.480;13.348;2022-10-29T01:41:18;14.23;;;5.03;;
7263;SDS011;3673;52.480;13.348;2022-10-29T01:43:50;12.38;;;5.53;;
7263;SDS011;3673;52.480;13.348;2022-10-29T01:46:26;14.25;;;5.78;;
7263;SDS011;3673;52.480;13.348;2022-10-29T01:49:01;16.80;;;5.90;;
7263;SDS011;3673;52.480;13.348;2022-10-29T01:51:35;16.60;;;6.03;;
7263;SDS011;3673;52.480;13.348;2022-10-29T01:54:05;20.40;;;6.50;;
7263;SDS011;3673;52.480;13.348;2022-10-29T01:56:35;21.10;;;7.03;;
7263;SDS011;3673;52.480;13.348;2022-10-29T01:59:04;25.05;;;6.72;;
7263;SDS011;3673;52.480;13.348;2022-10-29T02:01:38;14.75;;;5.85;;
7263;SDS011;3673;52.480;13.348;2022-10-29T02:04:23;22.35;;;6.95;;
7263;SDS011;3673;52.480;13.348;2022-10-29T02:07:09;18.50;;;5.97;;
7263;SDS011;3673;52.480;13.348;2022-10-29T02:09:45;12.60;;;5.82;;
7263;SDS011;3673;52.480;13.348;2022-10-29T02:12:24;13.38;;;5.80;;
7263;SDS011;3673;52.480;13.348;2022-10-29T02:14:54;15.93;;;6.72;;
7263;SDS011;3673;52.480;13.348;2022-10-29T02:17:30;16.67;;;6.25;;
7263;SDS011;3673;52.480;13.348;2022-10-29T02:19:58;14.73;;;5.75;;
7263;SDS011;3673;52.480;13.348;2022-10-29T02:22:29;17.98;;;6.95;;
7263;SDS011;3673;52.480;13.348;2022-10-29T02:24:56;19.75;;;6.70;;
7263;SDS011;3673;52.480;13.348;2022-10-29T02:27:23;14.60;;;6.32;;
7263;SDS011;3673;52.480;13.348;2022-10-29T02:29:49;12.88;;;5.78;;
7263;SDS011;3673;52.480;13.348;2022-10-29T02:32:16;15.13;;;6.20;;
7263;SDS011;3673;52.480;13.348;2022-10-29T02:34:44;14.38;;;5.60;;
7263;SDS011;3673;52.480;13.348;2022-10-29T02:37:11;15.45;;;6.30;;
7263;SDS011;3673;52.480;13.348;2022-10-29T02:39:38;9.68;;;5.40;;
7263;SDS011;3673;52.480;13.348;2022-10-29T02:42:05;15.75;;;5.65;;
7263;SDS011;3673;52.480;13.348;2022-10-29T02:44:31;14.23;;;5.15;;
7263;SDS011;3673;52.480;13.348;2022-10-29T02:46:58;21.75;;;5.22;;
7263;SDS011;3673;52.480;13.348;2022-10-29T02:49:25;12.88;;;5.65;;
7263;SDS011;3673;52.480;13.348;2022-10-29T02:51:54;15.80;;;7.18;;
7263;SDS011;3673;52.480;13.348;2022-10-29T02:54:20;10.70;;;5.68;;
7263;SDS011;3673;52.480;13.348;2022-10-29T02:56:47;10.55;;;6.35;;
7263;SDS011;3673;52.480;13.348;2022-10-29T02:59:14;14.52;;;5.47;;
7263;SDS011;3673;52.480;13.348;2022-10-29T03:01:41;14.73;;;5.57;;
7263;SDS011;3673;52.480;13.348;2022-10-29T03:04:09;16.35;;;5.93;;
7263;SDS011;3673;52.480;13.348;2022-10-29T03:06:36;16.10;;;6.15;;
7263;SDS011;3673;52.480;13.348;2022-10-29T03:09:04;15.80;;;6.65;;
7263;SDS011;3673;52.480;13.348;2022-10-29T03:11:31;14.65;;;7.30;;
7263;SDS011;3673;52.480;13.348;2022-10-29T03:13:58;18.80;;;6.13;;
7263;SDS011;3673;52.480;13.348;2022-10-29T03:16:25;15.05;;;6.18;;
7263;SDS011;3673;52.480;13.348;2022-10-29T03:18:52;17.02;;;6.55;;
7263;SDS011;3673;52.480;13.348;2022-10-29T03:21:19;13.65;;;5.95;;
7263;SDS011;3673;52.480;13.348;2022-10-29T03:23:46;14.13;;;7.28;;
7263;SDS011;3673;52.480;13.348;2022-10-29T03:26:14;14.35;;;7.32;;
7263;SDS011;3673;52.480;13.348;2022-10-29T03:28:41;15.48;;;7.20;;
7263;SDS011;3673;52.480;13.348;2022-10-29T03:31:07;21.77;;;6.63;;
7263;SDS011;3673;52.480;13.348;2022-10-29T03:33:34;17.15;;;6.70;;
7263;SDS011;3673;52.480;13.348;2022-10-29T03:36:02;14.77;;;7.03;;
7263;SDS011;3673;52.480;13.348;2022-10-29T03:38:32;20.65;;;9.10;;
7263;SDS011;3673;52.480;13.348;2022-10-29T03:41:00;16.23;;;7.25;;
7263;SDS011;3673;52.480;13.348;2022-10-29T03:43:33;15.43;;;7.15;;
7263;SDS011;3673;52.480;13.348;2022-10-29T03:46:00;17.15;;;6.95;;
7263;SDS011;3673;52.480;13.348;2022-10-29T03:48:27;16.58;;;7.50;;
7263;SDS011;3673;52.480;13.348;2022-10-29T03:50:54;12.30;;;6.15;;
7263;SDS011;3673;52.480;13.348;2022-10-29T03:53:22;11.30;;;6.47;;
7263;SDS011;3673;52.480;13.348;2022-10-29T03:55:50;20.23;;;7.13;;
7263;SDS011;3673;52.480;13.348;2022-10-29T03:58:17;20.90;;;7.10;;
7263;SDS011;3673;52.480;13.348;2022-10-29T04:00:53;18.30;;;7.38;;
7263;SDS011;3673;52.480;13.348;2022-10-29T04:03:21;20.20;;;7.68;;
7263;SDS011;3673;52.480;13.348;2022-10-29T04:05:48;13.02;;;5.75;;
7263;SDS011;3673;52.480;13.348;2022-10-29T04:08:15;17.88;;;7.55;;
7263;SDS011;3673;52.480;13.348;2022-10-29T04:10:42;14.52;;;6.25;;
7263;SDS011;3673;52.480;13.348;2022-10-29T04:13:10;17.75;;;7.70;;
7263;SDS011;3673;52.480;13.348;2022-10-29T04:15:37;17.20;;;6.90;;
7263;SDS011;3673;52.480;13.348;2022-10-29T04:18:06;16.80;;;7.13;;
7263;SDS011;3673;52.480;13.348;2022-10-29T04:20:33;21.70;;;8.75;;
7263;SDS011;3673;52.480;13.348;2022-10-29T04:23:00;17.05;;;7.30;;
7263;SDS011;3673;52.480;13.348;2022-10-29T04:25:27;16.85;;;6.78;;
7263;SDS011;3673;52.480;13.348;2022-10-29T04:27:54;17.65;;;6.82;;
7263;SDS011;3673;52.480;13.348;2022-10-29T04:30:21;14.68;;;7.30;;
7263;SDS011;3673;52.480;13.348;2022-10-29T04:32:49;14.23;;;6.57;;
7263;SDS011;3673;52.480;13.348;2022-10-29T04:35:17;14.63;;;6.28;;
7263;SDS011;3673;52.480;13.348;2022-10-29T04:37:44;14.02;;;6.28;;
7263;SDS011;3673;52.480;13.348;2022-10-29T04:40:11;18.60;;;6.68;;
7263;SDS011;3673;52.480;13.348;2022-10-29T04:42:38;15.15;;;7.10;;
7263;SDS011;3673;52.480;13.348;2022-10-29T04:45:06;15.48;;;6.20;;
7263;SDS011;3673;52.480;13.348;2022-10-29T04:47:34;15.25;;;6.70;;
7263;SDS011;3673;52.480;13.348;2022-10-29T04:50:01;18.15;;;7.07;;
7263;SDS011;3673;52.480;13.348;2022-10-29T04:52:29;17.23;;;6.78;;
7263;SDS011;3673;52.480;13.348;2022-10-29T04:54:56;12.80;;;6.68;;
7263;SDS011;3673;52.480;13.348;2022-10-29T04:57:23;18.15;;;7.85;;
7263;SDS011;3673;52.480;13.348;2022-10-29T04:59:50;18.35;;;6.90;;
7263;SDS011;3673;52.480;13.348;2022-10-29T05:02:17;14.60;;;6.30;;
7263;SDS011;3673;52.480;13.348;2022-10-29T05:04:43;16.88;;;7.30;;
7263;SDS011;3673;52.480;13.348;2022-10-29T05:07:10;17.92;;;7.60;;
7263;SDS011;3673;52.480;13.348;2022-10-29T05:09:38;17.83;;;9.32;;
7263;SDS011;3673;52.480;13.348;2022-10-29T05:12:06;24.70;;;9.15;;
7263;SDS011;3673;52.480;13.348;2022-10-29T05:14:33;13.57;;;6.70;;
7263;SDS011;3673;52.480;13.348;2022-10-29T05:17:00;16.65;;;9.10;;
7263;SDS011;3673;52.480;13.348;2022-10-29T05:19:27;14.93;;;6.82;;
7263;SDS011;3673;52.480;13.348;2022-10-29T05:21:54;18.55;;;7.15;;
7263;SDS011;3673;52.480;13.348;2022-10-29T05:24:20;16.77;;;6.85;;
7263;SDS011;3673;52.480;13.348;2022-10-29T05:26:48;21.98;;;9.02;;
7263;SDS011;3673;52.480;13.348;2022-10-29T05:29:15;17.38;;;6.82;;
7263;SDS011;3673;52.480;13.348;2022-10-29T05:31:42;22.10;;;7.63;;
7263;SDS011;3673;52.480;13.348;2022-10-29T05:34:09;20.30;;;7.07;;
7263;SDS011;3673;52.480;13.348;2022-10-29T05:36:35;16.33;;;6.85;;
7263;SDS011;3673;52.480;13.348;2022-10-29T05:39:02;18.08;;;6.35;;
7263;SDS011;3673;52.480;13.348;2022-10-29T05:41:29;17.90;;;8.07;;
7263;SDS011;3673;52.480;13.348;2022-10-29T05:43:57;18.35;;;7.60;;
7263;SDS011;3673;52.480;13.348;2022-10-29T05:46:24;22.50;;;7.60;;
7263;SDS011;3673;52.480;13.348;2022-10-29T05:48:51;15.60;;;7.07;;
7263;SDS011;3673;52.480;13.348;2022-10-29T05:51:18;23.05;;;7.03;;
7263;SDS011;3673;52.480;13.348;2022-10-29T05:53:45;13.82;;;6.55;;
7263;SDS011;3673;52.480;13.348;2022-10-29T05:56:12;21.90;;;7.90;;
7263;SDS011;3673;52.480;13.348;2022-10-29T05:58:39;17.02;;;7.82;;
7263;SDS011;3673;52.480;13.348;2022-10-29T06:01:08;15.52;;;7.13;;
7263;SDS011;3673;52.480;13.348;2022-10-29T06:03:36;17.27;;;7.32;;
7263;SDS011;3673;52.480;13.348;2022-10-29T06:06:03;24.38;;;11.90;;
7263;SDS011;3673;52.480;13.348;2022-10-29T06:08:30;21.20;;;9.85;;
7263;SDS011;3673;52.480;13.348;2022-10-29T06:10:59;20.27;;;6.70;;
7263;SDS011;3673;52.480;13.348;2022-10-29T06:13:27;15.50;;;6.88;;
7263;SDS011;3673;52.480;13.348;2022-10-29T06:15:55;14.43;;;7.38;;
7263;SDS011;3673;52.480;13.348;2022-10-29T06:18:26;20.80;;;7.40;;
7263;SDS011;3673;52.480;13.348;2022-10-29T06:20:53;21.00;;;7.65;;
7263;SDS011;3673;52.480;13.348;2022-10-29T06:23:24;18.52;;;7.57;;
7263;SDS011;3673;52.480;13.348;2022-10-29T06:25:51;18.90;;;7.68;;
7263;SDS011;3673;52.480;13.348;2022-10-29T06:28:18;15.85;;;7.13;;
7263;SDS011;3673;52.480;13.348;2022-10-29T06:30:45;21.50;;;9.40;;
7263;SDS011;3673;52.480;13.348;2022-10-29T06:33:13;22.73;;;8.52;;
7263;SDS011;3673;52.480;13.348;2022-10-29T06:35:42;15.35;;;7.65;;
7263;SDS011;3673;52.480;13.348;2022-10-29T06:38:09;18.98;;;7.75;;
7263;SDS011;3673;52.480;13.348;2022-10-29T06:40:36;14.95;;;6.97;;
7263;SDS011;3673;52.480;13.348;2022-10-29T06:43:04;15.30;;;7.43;;
7263;SDS011;3673;52.480;13.348;2022-10-29T06:45:34;23.17;;;8.60;;
7263;SDS011;3673;52.480;13.348;2022-10-29T06:48:01;17.13;;;6.90;;
7263;SDS011;3673;52.480;13.348;2022-10-29T06:50:29;13.07;;;7.10;;
7263;SDS011;3673;52.480;13.348;2022-10-29T06:52:58;16.85;;;7.10;;
7263;SDS011;3673;52.480;13.348;2022-10-29T06:55:27;18.30;;;7.47;;
7263;SDS011;3673;52.480;13.348;2022-10-29T06:57:59;15.00;;;6.70;;
7263;SDS011;3673;52.480;13.348;2022-10-29T07:00:27;19.08;;;7.65;;
7263;SDS011;3673;52.480;13.348;2022-10-29T07:02:56;24.65;;;7.38;;
7263;SDS011;3673;52.480;13.348;2022-10-29T07:05:24;15.57;;;6.65;;
7263;SDS011;3673;52.480;13.348;2022-10-29T07:07:53;16.52;;;6.72;;
7263;SDS011;3673;52.480;13.348;2022-10-29T07:10:23;16.98;;;6.55;;
7263;SDS011;3673;52.480;13.348;2022-10-29T07:12:51;17.27;;;7.90;;
7263;SDS011;3673;52.480;13.348;2022-10-29T07:15:18;10.52;;;6.10;;
7263;SDS011;3673;52.480;13.348;2022-10-29T07:17:52;24.90;;;12.05;;
7263;SDS011;3673;52.480;13.348;2022-10-29T07:20:20;16.30;;;7.30;;
7263;SDS011;3673;52.480;13.348;2022-10-29T07:22:47;17.58;;;7.60;;
7263;SDS011;3673;52.480;13.348;2022-10-29T07:25:14;19.65;;;7.60;;
7263;SDS011;3673;52.480;13.348;2022-10-29T07:27:43;17.65;;;7.22;;
7263;SDS011;3673;52.480;13.348;2022-10-29T07:30:09;13.18;;;7.03;;
7263;SDS011;3673;52.480;13.348;2022-10-29T07:32:37;17.08;;;7.22;;
7263;SDS011;3673;52.480;13.348;2022-10-29T07:35:04;15.68;;;7.20;;
7263;SDS011;3673;52.480;13.348;2022-10-29T07:37:31;13.93;;;7.43;;
7263;SDS011;3673;52.480;13.348;2022-10-29T07:39:58;21.15;;;7.07;;
7263;SDS011;3673;52.480;13.348;2022-10-29T07:42:25;18.13;;;7.78;;
7263;SDS011;3673;52.480;13.348;2022-10-29T07:44:53;13.90;;;6.80;;
7263;SDS011;3673;52.480;13.348;2022-10-29T07:47:20;19.02;;;7.60;;
7263;SDS011;3673;52.480;13.348;2022-10-29T07:49:46;14.25;;;7.35;;
7263;SDS011;3673;52.480;13.348;2022-10-29T07:52:13;17.70;;;7.10;;
7263;SDS011;3673;52.480;13.348;2022-10-29T07:54:40;16.25;;;6.78;;
7263;SDS011;3673;52.480;13.348;2022-10-29T07:57:07;14.57;;;6.55;;
7263;SDS011;3673;52.480;13.348;2022-10-29T07:59:33;17.65;;;7.30;;
7263;SDS011;3673;52.480;13.348;2022-10-29T08:02:01;14.38;;;6.80;;
7263;SDS011;3673;52.480;13.348;2022-10-29T08:04:28;14.60;;;7.18;;
7263;SDS011;3673;52.480;13.348;2022-10-29T08:06:55;17.13;;;7.28;;
7263;SDS011;3673;52.480;13.348;2022-10-29T08:09:22;21.27;;;6.68;;
7263;SDS011;3673;52.480;13.348;2022-10-29T08:11:49;15.30;;;6.45;;
7263;SDS011;3673;52.480;13.348;2022-10-29T08:14:15;13.38;;;7.30;;
7263;SDS011;3673;52.480;13.348;2022-10-29T08:16:42;15.15;;;7.15;;
7263;SDS011;3673;52.480;13.348;2022-10-29T08:19:10;17.42;;;6.68;;
7263;SDS011;3673;52.480;13.348;2022-10-29T08:21:38;15.20;;;6.22;;
7263;SDS011;3673;52.480;13.348;2022-10-29T08:24:05;16.33;;;7.82;;
7263;SDS011;3673;52.480;13.348;2022-10-29T08:26:32;17.98;;;7.22;;
7263;SDS011;3673;52.480;13.348;2022-10-29T08:28:59;12.48;;;6.47;;
7263;SDS011;3673;52.480;13.348;2022-10-29T08:31:25;18.65;;;6.82;;
7263;SDS011;3673;52.480;13.348;2022-10-29T08:33:52;12.88;;;6.93;;
7263;SDS011;3673;52.480;13.348;2022-10-29T08:36:20;30.25;;;8.20;;
7263;SDS011;3673;52.480;13.348;2022-10-29T08:38:47;11.15;;;6.32;;
7263;SDS011;3673;52.480;13.348;2022-10-29T08:41:28;14.85;;;6.30;;
7263;SDS011;3673;52.480;13.348;2022-10-29T08:44:14;18.40;;;6.95;;
7263;SDS011;3673;52.480;13.348;2022-10-29T08:47:12;14.50;;;5.78;;
7263;SDS011;3673;52.480;13.348;2022-10-29T08:49:45;13.63;;;6.95;;
7263;SDS011;3673;52.480;13.348;2022-10-29T08:52:24;16.15;;;7.78;;
7263;SDS011;3673;52.480;13.348;2022-10-29T08:54:55;14.35;;;6.28;;
7263;SDS011;3673;52.480;13.348;2022-10-29T08:57:32;18.02;;;7.82;;
7263;SDS011;3673;52.480;13.348;2022-10-29T09:00:07;11.50;;;6.47;;
7263;SDS011;3673;52.480;13.348;2022-10-29T09:02:41;21.65;;;7.30;;
7263;SDS011;3673;52.480;13.348;2022-10-29T09:05:11;19.10;;;7.07;;
7263;SDS011;3673;52.480;13.348;2022-10-29T09:07:48;20.27;;;7.32;;
7263;SDS011;3673;52.480;13.348;2022-10-29T09:10:31;18.38;;;6.93;;
7263;SDS011;3673;52.480;13.348;2022-10-29T09:13:08;12.52;;;7.20;;
7263;SDS011;3673;52.480;13.348;2022-10-29T09:15:58;13.80;;;6.47;;
7263;SDS011;3673;52.480;13.348;2022-10-29T09:18:39;17.27;;;7.07;;
7263;SDS011;3673;52.480;13.348;2022-10-29T09:21:26;25.63;;;6.80;;
7263;SDS011;3673;52.480;13.348;2022-10-29T09:24:02;16.05;;;6.85;;
7263;SDS011;3673;52.480;13.348;2022-10-29T09:26:39;16.73;;;7.03;;
7263;SDS011;3673;52.480;13.348;2022-10-29T09:29:45;20.58;;;7.10;;
7263;SDS011;3673;52.480;13.348;2022-10-29T09:32:28;13.77;;;6.47;;
7263;SDS011;3673;52.480;13.348;2022-10-29T09:35:00;14.45;;;6.30;;
7263;SDS011;3673;52.480;13.348;2022-10-29T09:37:34;17.15;;;7.97;;
7263;SDS011;3673;52.480;13.348;2022-10-29T09:40:16;11.98;;;6.10;;
7263;SDS011;3673;52.480;13.348;2022-10-29T09:42:56;17.90;;;6.40;;
7263;SDS011;3673;52.480;13.348;2022-10-29T09:45:29;14.38;;;6.15;;
7263;SDS011;3673;52.480;13.348;2022-10-29T09:48:09;17.52;;;9.68;;
7263;SDS011;3673;52.480;13.348;2022-10-29T09:50:47;14.40;;;6.20;;
7263;SDS011;3673;52.480;13.348;2022-10-29T09:53:22;11.02;;;6.05;;
7263;SDS011;3673;52.480;13.348;2022-10-29T09:55:51;12.23;;;5.57;;
7263;SDS011;3673;52.480;13.348;2022-10-29T09:58:19;15.45;;;5.85;;
7263;SDS011;3673;52.480;13.348;2022-10-29T10:00:48;12.43;;;5.18;;
7263;SDS011;3673;52.480;13.348;2022-10-29T10:03:17;14.50;;;5.32;;
7263;SDS011;3673;52.480;13.348;2022-10-29T10:06:00;15.60;;;6.22;;
7263;SDS011;3673;52.480;13.348;2022-10-29T10:08:29;13.38;;;5.85;;
7263;SDS011;3673;52.480;13.348;2022-10-29T10:10:59;13.02;;;5.70;;
7263;SDS011;3673;52.480;13.348;2022-10-29T10:13:30;13.70;;;6.05;;
7263;SDS011;3673;52.480;13.348;2022-10-29T10:15:59;13.25;;;6.00;;
7263;SDS011;3673;52.480;13.348;2022-10-29T10:18:37;16.88;;;5.85;;
7263;SDS011;3673;52.480;13.348;2022-10-29T10:21:07;19.33;;;5.15;;
7263;SDS011;3673;52.480;13.348;2022-10-29T10:23:43;16.73;;;5.78;;
7263;SDS011;3673;52.480;13.348;2022-10-29T10:26:33;12.65;;;5.57;;
7263;SDS011;3673;52.480;13.348;2022-10-29T10:29:10;21.33;;;5.78;;
7263;SDS011;3673;52.480;13.348;2022-10-29T10:31:40;16.00;;;6.03;;
7263;SDS011;3673;52.480;13.348;2022-10-29T10:34:13;19.52;;;5.70;;
7263;SDS011;3673;52.480;13.348;2022-10-29T10:36:45;15.20;;;6.50;;
7263;SDS011;3673;52.480;13.348;2022-10-29T10:39:24;14.30;;;5.25;;
7263;SDS011;3673;52.480;13.348;2022-10-29T10:44:23;10.43;;;5.45;;
7263;SDS011;3673;52.480;13.348;2022-10-29T10:46:50;14.10;;;5.55;;
7263;SDS011;3673;52.480;13.348;2022-10-29T10:49:22;12.52;;;6.68;;
7263;SDS011;3673;52.480;13.348;2022-10-29T10:51:57;13.73;;;6.13;;
7263;SDS011;3673;52.480;13.348;2022-10-29T10:54:31;17.13;;;6.53;;
7263;SDS011;3673;52.480;13.348;2022-10-29T10:57:03;11.85;;;5.60;;
7263;SDS011;3673;52.480;13.348;2022-10-29T10:59:46;20.70;;;6.10;;
7263;SDS011;3673;52.480;13.348;2022-10-29T11:02:24;10.90;;;5.43;;
7263;SDS011;3673;52.480;13.348;2022-10-29T11:04:59;12.00;;;5.78;;
7263;SDS011;3673;52.480;13.348;2022-10-29T11:07:38;19.25;;;7.85;;
7263;SDS011;3673;52.480;13.348;2022-10-29T11:10:11;15.73;;;5.75;;
7263;SDS011;3673;52.480;13.348;2022-10-29T11:12:42;15.20;;;6.95;;
7263;SDS011;3673;52.480;13.348;2022-10-29T11:15:14;14.20;;;5.93;;
7263;SDS011;3673;52.480;13.348;2022-10-29T11:17:52;17.75;;;6.13;;
7263;SDS011;3673;52.480;13.348;2022-10-29T11:20:23;22.83;;;7.20;;
7263;SDS011;3673;52.480;13.348;2022-10-29T11:22:57;17.08;;;6.28;;
7263;SDS011;3673;52.480;13.348;2022-10-29T11:25:40;13.70;;;6.20;;
7263;SDS011;3673;52.480;13.348;2022-10-29T11:28:17;13.02;;;5.72;;
7263;SDS011;3673;52.480;13.348;2022-10-29T11:30:53;11.20;;;5.18;;
7263;SDS011;3673;52.480;13.348;2022-10-29T11:33:30;16.73;;;6.65;;
7263;SDS011;3673;52.480;13.348;2022-10-29T11:36:10;11.07;;;5.60;;
7263;SDS011;3673;52.480;13.348;2022-10-29T11:38:42;10.60;;;4.97;;
7263;SDS011;3673;52.480;13.348;2022-10-29T11:41:18;19.25;;;5.88;;
7263;SDS011;3673;52.480;13.348;2022-10-29T11:43:53;17.95;;;7.05;;
7263;SDS011;3673;52.480;13.348;2022-10-29T11:46:22;14.13;;;7.60;;
7263;SDS011;3673;52.480;13.348;2022-10-29T11:48:59;10.38;;;5.78;;
7263;SDS011;3673;52.480;13.348;2022-10-29T11:51:42;15.48;;;6.47;;
7263;SDS011;3673;52.480;13.348;2022-10-29T11:54:18;13.05;;;4.68;;
7263;SDS011;3673;52.480;13.348;2022-10-29T11:57:08;18.45;;;5.53;;
7263;SDS011;3673;52.480;13.348;2022-10-29T11:59:44;15.07;;;6.05;;
7263;SDS011;3673;52.480;13.348;2022-10-29T12:02:42;15.15;;;6.53;;
7263;SDS011;3673;52.480;13.348;2022-10-29T12:05:44;13.57;;;5.97;;
7263;SDS011;3673;52.480;13.348;2022-10-29T12:08:26;12.50;;;5.53;;
7263;SDS011;3673;52.480;13.348;2022-10-29T12:11:10;13.23;;;5.65;;
7263;SDS011;3673;52.480;13.348;2022-10-29T12:13:49;14.15;;;5.97;;
7263;SDS011;3673;52.480;13.348;2022-10-29T12:16:32;15.82;;;5.63;;
7263;SDS011;3673;52.480;13.348;2022-10-29T12:19:13;18.60;;;8.15;;
7263;SDS011;3673;52.480;13.348;2022-10-29T12:21:55;14.10;;;7.28;;
7263;SDS011;3673;52.480;13.348;2022-10-29T12:24:37;13.23;;;5.65;;
7263;SDS011;3673;52.480;13.348;2022-10-29T12:27:25;13.75;;;6.60;;
7263;SDS011;3673;52.480;13.348;2022-10-29T12:30:06;15.48;;;7.55;;
7263;SDS011;3673;52.480;13.348;2022-10-29T12:32:40;20.27;;;6.57;;
7263;SDS011;3673;52.480;13.348;2022-10-29T12:35:21;19.25;;;7.20;;
7263;SDS011;3673;52.480;13.348;2022-10-29T12:37:59;19.83;;;7.18;;
7263;SDS011;3673;52.480;13.348;2022-10-29T12:40:41;21.73;;;7.70;;
7263;SDS011;3673;52.480;13.348;2022-10-29T12:43:12;19.27;;;7.13;;
7263;SDS011;3673;52.480;13.348;2022-10-29T12:45:45;18.38;;;7.07;;
7263;SDS011;3673;52.480;13.348;2022-10-29T12:48:24;14.30;;;6.47;;
7263;SDS011;3673;52.480;13.348;2022-10-29T12:51:01;21.40;;;7.90;;
7263;SDS011;3673;52.480;13.348;2022-10-29T12:53:38;28.60;;;10.35;;
7263;SDS011;3673;52.480;13.348;2022-10-29T12:56:19;21.38;;;7.47;;
7263;SDS011;3673;52.480;13.348;2022-10-29T12:58:48;19.23;;;7.28;;
7263;SDS011;3673;52.480;13.348;2022-10-29T13:04:25;18.77;;;8.23;;
7263;SDS011;3673;52.480;13.348;2022-10-29T13:07:01;22.13;;;8.02;;
7263;SDS011;3673;52.480;13.348;2022-10-29T13:12:02;19.15;;;6.68;;
7263;SDS011;3673;52.480;13.348;2022-10-29T13:14:34;15.43;;;7.28;;
7263;SDS011;3673;52.480;13.348;2022-10-29T13:17:19;22.88;;;11.35;;
7263;SDS011;3673;52.480;13.348;2022-10-29T13:19:55;18.73;;;6.82;;
7263;SDS011;3673;52.480;13.348;2022-10-29T13:22:32;16.50;;;7.88;;
7263;SDS011;3673;52.480;13.348;2022-10-29T13:25:27;16.23;;;7.97;;
7263;SDS011;3673;52.480;13.348;2022-10-29T13:37:37;14.85;;;6.15;;
7263;SDS011;3673;52.480;13.348;2022-10-29T13:43:09;15.18;;;6.25;;
7263;SDS011;3673;52.480;13.348;2022-10-29T13:45:44;18.25;;;6.82;;
7263;SDS011;3673;52.480;13.348;2022-10-29T13:48:18;14.40;;;6.72;;
7263;SDS011;3673;52.480;13.348;2022-10-29T13:50:54;15.82;;;6.57;;
7263;SDS011;3673;52.480;13.348;2022-10-29T13:53:24;15.10;;;6.72;;
7263;SDS011;3673;52.480;13.348;2022-10-29T13:56:05;13.93;;;6.97;;
7263;SDS011;3673;52.480;13.348;2022-10-29T13:58:36;13.93;;;6.60;;
7263;SDS011;3673;52.480;13.348;2022-10-29T14:01:06;22.58;;;7.70;;
7263;SDS011;3673;52.480;13.348;2022-10-29T14:03:38;14.73;;;6.50;;
7263;SDS011;3673;52.480;13.348;2022-10-29T14:06:21;11.57;;;5.65;;
7263;SDS011;3673;52.480;13.348;2022-10-29T14:08:54;14.60;;;6.63;;
7263;SDS011;3673;52.480;13.348;2022-10-29T14:11:29;13.40;;;6.35;;
7263;SDS011;3673;52.480;13.348;2022-10-29T14:14:04;12.68;;;6.20;;
7263;SDS011;3673;52.480;13.348;2022-10-29T14:16:45;14.55;;;6.45;;
7263;SDS011;3673;52.480;13.348;2022-10-29T14:19:13;12.40;;;6.40;;
7263;SDS011;3673;52.480;13.348;2022-10-29T14:21:46;24.48;;;8.00;;
7263;SDS011;3673;52.480;13.348;2022-10-29T14:24:14;13.02;;;6.57;;
7263;SDS011;3673;52.480;13.348;2022-10-29T14:26:42;16.20;;;7.15;;
7263;SDS011;3673;52.480;13.348;2022-10-29T14:29:13;19.35;;;7.13;;
7263;SDS011;3673;52.480;13.348;2022-10-29T14:31:45;19.38;;;9.07;;
7263;SDS011;3673;52.480;13.348;2022-10-29T14:34:20;21.23;;;7.43;;
7263;SDS011;3673;52.480;13.348;2022-10-29T14:36:52;14.18;;;7.25;;
7263;SDS011;3673;52.480;13.348;2022-10-29T14:39:24;16.33;;;7.55;;
7263;SDS011;3673;52.480;13.348;2022-10-29T14:41:55;22.58;;;8.32;;
7263;SDS011;3673;52.480;13.348;2022-10-29T14:44:23;14.48;;;7.75;;
7263;SDS011;3673;52.480;13.348;2022-10-29T14:46:55;13.27;;;6.55;;
7263;SDS011;3673;52.480;13.348;2022-10-29T14:49:29;17.48;;;7.60;;
7263;SDS011;3673;52.480;13.348;2022-10-29T14:51:59;19.65;;;7.13;;
7263;SDS011;3673;52.480;13.348;2022-10-29T14:54:31;18.92;;;7.82;;
7263;SDS011;3673;52.480;13.348;2022-10-29T14:57:02;15.68;;;7.22;;
7263;SDS011;3673;52.480;13.348;2022-10-29T14:59:32;18.88;;;7.60;;
7263;SDS011;3673;52.480;13.348;2022-10-29T15:02:03;19.38;;;7.07;;
7263;SDS011;3673;52.480;13.348;2022-10-29T15:04:44;21.52;;;8.48;;
7263;SDS011;3673;52.480;13.348;2022-10-29T15:10:01;15.52;;;7.63;;
7263;SDS011;3673;52.480;13.348;2022-10-29T15:12:45;16.90;;;8.27;;
7263;SDS011;3673;52.480;13.348;2022-10-29T15:15:20;18.45;;;6.93;;
7263;SDS011;3673;52.480;13.348;2022-10-29T15:20:21;16.92;;;8.68;;
7263;SDS011;3673;52.480;13.348;2022-10-29T15:22:53;25.10;;;11.38;;
7263;SDS011;3673;52.480;13.348;2022-10-29T15:25:22;21.48;;;10.73;;
7263;SDS011;3673;52.480;13.348;2022-10-29T15:27:53;19.02;;;10.30;;
7263;SDS011;3673;52.480;13.348;2022-10-29T15:30:21;18.95;;;9.98;;
7263;SDS011;3673;52.480;13.348;2022-10-29T15:32:56;19.92;;;10.80;;
7263;SDS011;3673;52.480;13.348;2022-10-29T15:35:24;24.00;;;13.15;;
7263;SDS011;3673;52.480;13.348;2022-10-29T15:37:53;22.00;;;12.05;;
7263;SDS011;3673;52.480;13.348;2022-10-29T15:40:21;24.60;;;10.73;;
7263;SDS011;3673;52.480;13.348;2022-10-29T15:42:50;19.38;;;9.88;;
7263;SDS011;3673;52.480;13.348;2022-10-29T15:45:22;19.58;;;10.23;;
7263;SDS011;3673;52.480;13.348;2022-10-29T15:47:53;23.77;;;11.10;;
7263;SDS011;3673;52.480;13.348;2022-10-29T15:50:23;22.15;;;12.50;;